EGTE METAR and TAF | Updated Today

EGTE METAR

Exeter International Airport

Observation time: 8 min. ago

EGTE 251850Z 26011KT 9999 FEW020 SCT033 15/10 Q1018

Need help? Read our tutorial on how to read METARs or read the parsed version below.

Exeter International Airport (EGTE) METAR

  • Weather conditions on Wed, 25 May 2022 18:50:00 +0000 (8 min. ago):
  • Present conditions: Dry
  • Clouds: A few at 610 meters; scattered at 1006 meters
  • Visibility: Greater than 10 km
  • Wind: 260 degrees at 11 knots
  • Temperature: 15 celsius
  • Dew point: 10 celsius
  • Pressure: 1018 millibars
  • Remarks: None


Useful to know...

EGTE TAF

Exeter International Airport

TAF EGTE 251356Z 2515/2519 25012KT 9999 SCT015 TEMPO 2515/2519 27015G28KT 8000 -SHRA BKN012
Observation time: 5:02 hr. ago
Need help? Read our tutorial on how to read TAFs or read the parsed version below.

Parsed version of TAF for Exeter International Airport (EGTE)

  • From 25 May at 15:00 UTC, to day 25 of the month at 19:00 UTC
  • Clouds: Scattered at 457 meters
  • Visibility: Greater than 10 km
  • Wind: 250 degrees at 12
  • Expected to arise temporarily, from 25 May at 15:00 UTC, to day 25 of the month at 19:00 UTC
  • Clouds: Broken sky at 366 meters
  • Visibility: 8000 meters
  • Wind: 270 degrees at 15
  • Other: Light showers of rain